sensor_id;sensor_type;location;lat;lon;timestamp;P1;durP1;ratioP1;P2;durP2;ratioP2
76113;SDS011;64845;53.086;5.834;2023-07-22T00:00:52;5.85;;;2.35;;
76113;SDS011;64845;53.086;5.834;2023-07-22T00:03:17;5.53;;;2.40;;
76113;SDS011;64845;53.086;5.834;2023-07-22T00:05:42;4.82;;;2.10;;
76113;SDS011;64845;53.086;5.834;2023-07-22T00:08:08;3.65;;;2.08;;
76113;SDS011;64845;53.086;5.834;2023-07-22T00:10:34;4.75;;;2.50;;
76113;SDS011;64845;53.086;5.834;2023-07-22T00:12:59;3.80;;;2.17;;
76113;SDS011;64845;53.086;5.834;2023-07-22T00:15:25;5.15;;;2.08;;
76113;SDS011;64845;53.086;5.834;2023-07-22T00:17:50;7.70;;;2.40;;
76113;SDS011;64845;53.086;5.834;2023-07-22T00:20:16;4.45;;;2.15;;
76113;SDS011;64845;53.086;5.834;2023-07-22T00:22:42;4.05;;;2.28;;
76113;SDS011;64845;53.086;5.834;2023-07-22T00:25:09;6.18;;;2.10;;
76113;SDS011;64845;53.086;5.834;2023-07-22T00:27:39;4.82;;;2.30;;
76113;SDS011;64845;53.086;5.834;2023-07-22T00:30:07;5.95;;;2.08;;
76113;SDS011;64845;53.086;5.834;2023-07-22T00:32:33;4.43;;;2.03;;
76113;SDS011;64845;53.086;5.834;2023-07-22T00:35:02;8.13;;;2.00;;
76113;SDS011;64845;53.086;5.834;2023-07-22T00:37:27;4.45;;;2.50;;
76113;SDS011;64845;53.086;5.834;2023-07-22T00:39:53;3.70;;;1.83;;
76113;SDS011;64845;53.086;5.834;2023-07-22T00:42:19;5.57;;;1.85;;
76113;SDS011;64845;53.086;5.834;2023-07-22T00:44:45;4.47;;;2.05;;
76113;SDS011;64845;53.086;5.834;2023-07-22T00:47:11;3.60;;;2.10;;
76113;SDS011;64845;53.086;5.834;2023-07-22T00:49:37;3.70;;;2.00;;
76113;SDS011;64845;53.086;5.834;2023-07-22T00:52:03;5.90;;;2.28;;
76113;SDS011;64845;53.086;5.834;2023-07-22T00:54:30;6.10;;;2.17;;
76113;SDS011;64845;53.086;5.834;2023-07-22T00:56:56;4.25;;;1.92;;
76113;SDS011;64845;53.086;5.834;2023-07-22T00:59:22;6.05;;;1.88;;
76113;SDS011;64845;53.086;5.834;2023-07-22T01:01:47;2.65;;;1.85;;
76113;SDS011;64845;53.086;5.834;2023-07-22T01:04:13;6.40;;;2.10;;
76113;SDS011;64845;53.086;5.834;2023-07-22T01:06:40;4.50;;;1.90;;
76113;SDS011;64845;53.086;5.834;2023-07-22T01:09:05;3.25;;;1.90;;
76113;SDS011;64845;53.086;5.834;2023-07-22T01:11:32;4.13;;;2.20;;
76113;SDS011;64845;53.086;5.834;2023-07-22T01:13:57;4.40;;;1.98;;
76113;SDS011;64845;53.086;5.834;2023-07-22T01:16:25;6.53;;;1.98;;
76113;SDS011;64845;53.086;5.834;2023-07-22T01:18:52;6.00;;;2.00;;
76113;SDS011;64845;53.086;5.834;2023-07-22T01:21:19;4.45;;;1.77;;
76113;SDS011;64845;53.086;5.834;2023-07-22T01:23:45;9.55;;;2.35;;
76113;SDS011;64845;53.086;5.834;2023-07-22T01:26:12;4.95;;;2.40;;
76113;SDS011;64845;53.086;5.834;2023-07-22T01:28:38;4.40;;;1.90;;
76113;SDS011;64845;53.086;5.834;2023-07-22T01:31:03;4.65;;;2.08;;
76113;SDS011;64845;53.086;5.834;2023-07-22T01:33:30;9.77;;;2.05;;
76113;SDS011;64845;53.086;5.834;2023-07-22T01:35:56;3.58;;;1.95;;
76113;SDS011;64845;53.086;5.834;2023-07-22T01:38:21;7.85;;;2.20;;
76113;SDS011;64845;53.086;5.834;2023-07-22T01:40:46;3.85;;;2.03;;
76113;SDS011;64845;53.086;5.834;2023-07-22T01:43:12;7.47;;;2.03;;
76113;SDS011;64845;53.086;5.834;2023-07-22T01:45:38;6.93;;;2.63;;
76113;SDS011;64845;53.086;5.834;2023-07-22T01:48:04;6.00;;;2.75;;
76113;SDS011;64845;53.086;5.834;2023-07-22T01:50:31;4.32;;;2.25;;
76113;SDS011;64845;53.086;5.834;2023-07-22T01:52:57;5.13;;;2.50;;
76113;SDS011;64845;53.086;5.834;2023-07-22T01:55:22;4.70;;;2.30;;
76113;SDS011;64845;53.086;5.834;2023-07-22T01:57:47;7.32;;;2.08;;
76113;SDS011;64845;53.086;5.834;2023-07-22T02:00:13;3.60;;;2.38;;
76113;SDS011;64845;53.086;5.834;2023-07-22T02:02:41;3.95;;;2.30;;
76113;SDS011;64845;53.086;5.834;2023-07-22T02:05:07;6.45;;;2.20;;
76113;SDS011;64845;53.086;5.834;2023-07-22T02:07:35;4.60;;;2.22;;
76113;SDS011;64845;53.086;5.834;2023-07-22T02:10:00;5.28;;;2.58;;
76113;SDS011;64845;53.086;5.834;2023-07-22T02:12:26;3.83;;;2.05;;
76113;SDS011;64845;53.086;5.834;2023-07-22T02:14:51;3.63;;;2.20;;
76113;SDS011;64845;53.086;5.834;2023-07-22T02:17:17;4.78;;;2.53;;
76113;SDS011;64845;53.086;5.834;2023-07-22T02:19:42;4.47;;;2.25;;
76113;SDS011;64845;53.086;5.834;2023-07-22T02:22:08;4.88;;;2.25;;
76113;SDS011;64845;53.086;5.834;2023-07-22T02:24:34;4.55;;;2.45;;
76113;SDS011;64845;53.086;5.834;2023-07-22T02:27:00;3.72;;;2.00;;
76113;SDS011;64845;53.086;5.834;2023-07-22T02:29:25;7.32;;;2.33;;
76113;SDS011;64845;53.086;5.834;2023-07-22T02:31:51;7.45;;;2.50;;
76113;SDS011;64845;53.086;5.834;2023-07-22T02:34:16;3.75;;;2.42;;
76113;SDS011;64845;53.086;5.834;2023-07-22T02:36:41;6.50;;;2.08;;
76113;SDS011;64845;53.086;5.834;2023-07-22T02:39:07;5.03;;;2.50;;
76113;SDS011;64845;53.086;5.834;2023-07-22T02:41:36;5.88;;;2.72;;
76113;SDS011;64845;53.086;5.834;2023-07-22T02:44:02;5.72;;;2.45;;
76113;SDS011;64845;53.086;5.834;2023-07-22T02:46:28;5.25;;;2.50;;
76113;SDS011;64845;53.086;5.834;2023-07-22T02:48:53;3.88;;;2.13;;
76113;SDS011;64845;53.086;5.834;2023-07-22T02:51:19;5.85;;;2.63;;
76113;SDS011;64845;53.086;5.834;2023-07-22T02:53:46;8.10;;;3.08;;
76113;SDS011;64845;53.086;5.834;2023-07-22T02:56:12;5.72;;;2.97;;
76113;SDS011;64845;53.086;5.834;2023-07-22T02:58:38;7.30;;;3.00;;
76113;SDS011;64845;53.086;5.834;2023-07-22T03:01:04;5.88;;;2.53;;
76113;SDS011;64845;53.086;5.834;2023-07-22T03:03:33;4.95;;;2.70;;
76113;SDS011;64845;53.086;5.834;2023-07-22T03:05:59;5.40;;;2.90;;
76113;SDS011;64845;53.086;5.834;2023-07-22T03:08:25;3.88;;;2.55;;
76113;SDS011;64845;53.086;5.834;2023-07-22T03:10:51;6.90;;;2.85;;
76113;SDS011;64845;53.086;5.834;2023-07-22T03:13:16;10.95;;;4.25;;
76113;SDS011;64845;53.086;5.834;2023-07-22T03:15:42;14.43;;;3.67;;
76113;SDS011;64845;53.086;5.834;2023-07-22T03:18:08;5.35;;;3.08;;
76113;SDS011;64845;53.086;5.834;2023-07-22T03:20:35;9.02;;;3.47;;
76113;SDS011;64845;53.086;5.834;2023-07-22T03:23:02;5.78;;;3.35;;
76113;SDS011;64845;53.086;5.834;2023-07-22T03:25:27;6.20;;;3.42;;
76113;SDS011;64845;53.086;5.834;2023-07-22T03:27:53;9.68;;;4.25;;
76113;SDS011;64845;53.086;5.834;2023-07-22T03:30:21;8.68;;;3.92;;
76113;SDS011;64845;53.086;5.834;2023-07-22T03:32:47;14.95;;;4.28;;
76113;SDS011;64845;53.086;5.834;2023-07-22T03:35:15;8.15;;;4.88;;
76113;SDS011;64845;53.086;5.834;2023-07-22T03:37:40;10.10;;;5.18;;
76113;SDS011;64845;53.086;5.834;2023-07-22T03:40:06;7.78;;;5.15;;
76113;SDS011;64845;53.086;5.834;2023-07-22T03:42:48;10.90;;;5.38;;
76113;SDS011;64845;53.086;5.834;2023-07-22T03:45:15;12.10;;;6.03;;
76113;SDS011;64845;53.086;5.834;2023-07-22T03:47:43;13.95;;;6.60;;
76113;SDS011;64845;53.086;5.834;2023-07-22T03:50:09;11.57;;;6.75;;
76113;SDS011;64845;53.086;5.834;2023-07-22T03:52:35;13.40;;;6.72;;
76113;SDS011;64845;53.086;5.834;2023-07-22T03:55:00;11.80;;;6.40;;
76113;SDS011;64845;53.086;5.834;2023-07-22T03:57:26;10.02;;;6.32;;
76113;SDS011;64845;53.086;5.834;2023-07-22T03:59:55;14.82;;;6.85;;
76113;SDS011;64845;53.086;5.834;2023-07-22T04:02:21;13.70;;;7.47;;
76113;SDS011;64845;53.086;5.834;2023-07-22T04:04:47;12.98;;;7.40;;
76113;SDS011;64845;53.086;5.834;2023-07-22T04:07:12;17.48;;;7.93;;
76113;SDS011;64845;53.086;5.834;2023-07-22T04:09:38;12.52;;;6.63;;
76113;SDS011;64845;53.086;5.834;2023-07-22T04:12:04;12.60;;;7.00;;
76113;SDS011;64845;53.086;5.834;2023-07-22T04:14:29;17.65;;;7.47;;
76113;SDS011;64845;53.086;5.834;2023-07-22T04:16:55;14.90;;;7.45;;
76113;SDS011;64845;53.086;5.834;2023-07-22T04:19:20;15.07;;;7.85;;
76113;SDS011;64845;53.086;5.834;2023-07-22T04:21:46;16.98;;;8.00;;
76113;SDS011;64845;53.086;5.834;2023-07-22T04:24:11;17.88;;;7.93;;
76113;SDS011;64845;53.086;5.834;2023-07-22T04:26:37;17.30;;;7.50;;
76113;SDS011;64845;53.086;5.834;2023-07-22T04:29:02;14.50;;;7.57;;
76113;SDS011;64845;53.086;5.834;2023-07-22T04:31:28;15.55;;;7.72;;
76113;SDS011;64845;53.086;5.834;2023-07-22T04:33:53;12.55;;;7.50;;
76113;SDS011;64845;53.086;5.834;2023-07-22T04:36:19;15.50;;;8.10;;
76113;SDS011;64845;53.086;5.834;2023-07-22T04:38:44;12.57;;;7.80;;
76113;SDS011;64845;53.086;5.834;2023-07-22T04:41:09;17.77;;;8.75;;
76113;SDS011;64845;53.086;5.834;2023-07-22T04:43:35;17.52;;;9.38;;
76113;SDS011;64845;53.086;5.834;2023-07-22T04:46:00;17.65;;;8.45;;
76113;SDS011;64845;53.086;5.834;2023-07-22T04:48:25;17.75;;;8.82;;
76113;SDS011;64845;53.086;5.834;2023-07-22T04:50:51;18.40;;;8.73;;
76113;SDS011;64845;53.086;5.834;2023-07-22T04:53:17;17.30;;;8.93;;
76113;SDS011;64845;53.086;5.834;2023-07-22T04:55:43;14.80;;;8.05;;
76113;SDS011;64845;53.086;5.834;2023-07-22T04:58:08;12.30;;;8.10;;
76113;SDS011;64845;53.086;5.834;2023-07-22T05:00:37;16.15;;;8.48;;
76113;SDS011;64845;53.086;5.834;2023-07-22T05:03:03;16.42;;;8.00;;
76113;SDS011;64845;53.086;5.834;2023-07-22T05:05:29;13.80;;;7.68;;
76113;SDS011;64845;53.086;5.834;2023-07-22T05:07:54;12.32;;;7.47;;
76113;SDS011;64845;53.086;5.834;2023-07-22T05:10:20;14.73;;;7.32;;
76113;SDS011;64845;53.086;5.834;2023-07-22T05:12:45;16.17;;;7.80;;
76113;SDS011;64845;53.086;5.834;2023-07-22T05:15:11;13.60;;;6.95;;
76113;SDS011;64845;53.086;5.834;2023-07-22T05:17:38;12.48;;;7.45;;
76113;SDS011;64845;53.086;5.834;2023-07-22T05:20:04;13.23;;;7.78;;
76113;SDS011;64845;53.086;5.834;2023-07-22T05:22:37;12.25;;;6.88;;
76113;SDS011;64845;53.086;5.834;2023-07-22T05:25:04;13.48;;;8.13;;
76113;SDS011;64845;53.086;5.834;2023-07-22T05:27:30;13.15;;;7.68;;
76113;SDS011;64845;53.086;5.834;2023-07-22T05:29:56;16.98;;;8.98;;
76113;SDS011;64845;53.086;5.834;2023-07-22T05:32:21;15.07;;;8.80;;
76113;SDS011;64845;53.086;5.834;2023-07-22T05:34:47;19.17;;;9.38;;
76113;SDS011;64845;53.086;5.834;2023-07-22T05:37:12;18.70;;;9.18;;
76113;SDS011;64845;53.086;5.834;2023-07-22T05:39:37;19.65;;;9.93;;
76113;SDS011;64845;53.086;5.834;2023-07-22T05:42:03;18.58;;;9.70;;
76113;SDS011;64845;53.086;5.834;2023-07-22T05:44:28;24.42;;;9.65;;
76113;SDS011;64845;53.086;5.834;2023-07-22T05:46:54;18.48;;;10.27;;
76113;SDS011;64845;53.086;5.834;2023-07-22T05:49:20;18.85;;;9.90;;
76113;SDS011;64845;53.086;5.834;2023-07-22T05:51:45;19.08;;;9.80;;
76113;SDS011;64845;53.086;5.834;2023-07-22T05:54:11;19.15;;;9.70;;
76113;SDS011;64845;53.086;5.834;2023-07-22T05:56:36;19.55;;;10.05;;
76113;SDS011;64845;53.086;5.834;2023-07-22T05:59:02;15.48;;;10.38;;
76113;SDS011;64845;53.086;5.834;2023-07-22T06:01:27;17.58;;;9.27;;
76113;SDS011;64845;53.086;5.834;2023-07-22T06:03:52;18.08;;;9.85;;
76113;SDS011;64845;53.086;5.834;2023-07-22T06:06:18;16.80;;;9.60;;
76113;SDS011;64845;53.086;5.834;2023-07-22T06:08:43;16.02;;;9.77;;
76113;SDS011;64845;53.086;5.834;2023-07-22T06:11:09;18.55;;;10.15;;
76113;SDS011;64845;53.086;5.834;2023-07-22T06:13:34;20.42;;;10.60;;
76113;SDS011;64845;53.086;5.834;2023-07-22T06:16:00;19.75;;;11.00;;
76113;SDS011;64845;53.086;5.834;2023-07-22T06:18:25;20.48;;;11.05;;
76113;SDS011;64845;53.086;5.834;2023-07-22T06:20:50;19.98;;;11.15;;
76113;SDS011;64845;53.086;5.834;2023-07-22T06:23:16;22.77;;;12.23;;
76113;SDS011;64845;53.086;5.834;2023-07-22T06:25:42;19.15;;;10.88;;
76113;SDS011;64845;53.086;5.834;2023-07-22T06:28:07;21.45;;;11.48;;
76113;SDS011;64845;53.086;5.834;2023-07-22T06:30:33;20.90;;;11.77;;
76113;SDS011;64845;53.086;5.834;2023-07-22T06:32:58;21.70;;;11.48;;
76113;SDS011;64845;53.086;5.834;2023-07-22T06:35:24;22.85;;;12.63;;
76113;SDS011;64845;53.086;5.834;2023-07-22T06:37:49;21.60;;;11.68;;
76113;SDS011;64845;53.086;5.834;2023-07-22T06:40:14;22.55;;;12.10;;
76113;SDS011;64845;53.086;5.834;2023-07-22T06:42:40;19.90;;;11.30;;
76113;SDS011;64845;53.086;5.834;2023-07-22T06:45:05;22.02;;;12.38;;
76113;SDS011;64845;53.086;5.834;2023-07-22T06:47:31;22.98;;;12.10;;
76113;SDS011;64845;53.086;5.834;2023-07-22T06:49:57;20.13;;;11.27;;
76113;SDS011;64845;53.086;5.834;2023-07-22T06:52:22;18.33;;;11.27;;
76113;SDS011;64845;53.086;5.834;2023-07-22T06:54:48;21.00;;;11.93;;
76113;SDS011;64845;53.086;5.834;2023-07-22T06:57:13;18.75;;;12.05;;
76113;SDS011;64845;53.086;5.834;2023-07-22T06:59:39;17.27;;;11.00;;
76113;SDS011;64845;53.086;5.834;2023-07-22T07:02:04;16.40;;;10.80;;
76113;SDS011;64845;53.086;5.834;2023-07-22T07:04:30;16.52;;;10.20;;
76113;SDS011;64845;53.086;5.834;2023-07-22T07:06:55;17.10;;;9.90;;
76113;SDS011;64845;53.086;5.834;2023-07-22T07:09:21;20.88;;;11.07;;
76113;SDS011;64845;53.086;5.834;2023-07-22T07:11:47;20.38;;;10.27;;
76113;SDS011;64845;53.086;5.834;2023-07-22T07:14:12;19.83;;;9.95;;
76113;SDS011;64845;53.086;5.834;2023-07-22T07:16:37;15.15;;;9.63;;
76113;SDS011;64845;53.086;5.834;2023-07-22T07:19:03;14.60;;;9.40;;
76113;SDS011;64845;53.086;5.834;2023-07-22T07:21:28;16.42;;;9.18;;
76113;SDS011;64845;53.086;5.834;2023-07-22T07:23:54;13.32;;;8.52;;
76113;SDS011;64845;53.086;5.834;2023-07-22T07:26:20;12.57;;;7.65;;
76113;SDS011;64845;53.086;5.834;2023-07-22T07:28:47;14.50;;;8.48;;
76113;SDS011;64845;53.086;5.834;2023-07-22T07:31:13;11.65;;;7.88;;
76113;SDS011;64845;53.086;5.834;2023-07-22T07:33:39;13.68;;;8.88;;
76113;SDS011;64845;53.086;5.834;2023-07-22T07:36:04;15.52;;;8.38;;
76113;SDS011;64845;53.086;5.834;2023-07-22T07:38:30;15.73;;;8.30;;
76113;SDS011;64845;53.086;5.834;2023-07-22T07:40:56;14.15;;;7.85;;
76113;SDS011;64845;53.086;5.834;2023-07-22T07:43:23;19.38;;;7.72;;
76113;SDS011;64845;53.086;5.834;2023-07-22T07:45:49;16.45;;;7.40;;
76113;SDS011;64845;53.086;5.834;2023-07-22T07:48:15;14.10;;;7.25;;
76113;SDS011;64845;53.086;5.834;2023-07-22T07:50:42;11.43;;;7.00;;
76113;SDS011;64845;53.086;5.834;2023-07-22T07:53:07;13.60;;;7.05;;
76113;SDS011;64845;53.086;5.834;2023-07-22T07:55:33;10.88;;;6.97;;
76113;SDS011;64845;53.086;5.834;2023-07-22T07:57:58;10.88;;;7.07;;
76113;SDS011;64845;53.086;5.834;2023-07-22T08:00:24;12.10;;;7.40;;
76113;SDS011;64845;53.086;5.834;2023-07-22T08:02:49;13.50;;;6.70;;
76113;SDS011;64845;53.086;5.834;2023-07-22T08:05:15;12.70;;;7.47;;
76113;SDS011;64845;53.086;5.834;2023-07-22T08:07:41;12.13;;;6.38;;
76113;SDS011;64845;53.086;5.834;2023-07-22T08:10:06;14.10;;;6.03;;
76113;SDS011;64845;53.086;5.834;2023-07-22T08:12:32;12.02;;;6.50;;
76113;SDS011;64845;53.086;5.834;2023-07-22T08:14:58;13.73;;;7.18;;
76113;SDS011;64845;53.086;5.834;2023-07-22T08:17:24;10.48;;;6.60;;
76113;SDS011;64845;53.086;5.834;2023-07-22T08:19:49;13.25;;;7.78;;
76113;SDS011;64845;53.086;5.834;2023-07-22T08:22:15;12.45;;;8.10;;
76113;SDS011;64845;53.086;5.834;2023-07-22T08:24:40;12.75;;;8.07;;
76113;SDS011;64845;53.086;5.834;2023-07-22T08:27:06;11.43;;;7.40;;
76113;SDS011;64845;53.086;5.834;2023-07-22T08:29:31;10.18;;;6.93;;
76113;SDS011;64845;53.086;5.834;2023-07-22T08:31:57;16.50;;;9.13;;
76113;SDS011;64845;53.086;5.834;2023-07-22T08:34:23;19.90;;;11.05;;
76113;SDS011;64845;53.086;5.834;2023-07-22T08:36:48;37.58;;;14.93;;
76113;SDS011;64845;53.086;5.834;2023-07-22T08:39:14;50.47;;;16.50;;
76113;SDS011;64845;53.086;5.834;2023-07-22T08:41:39;29.17;;;15.75;;
76113;SDS011;64845;53.086;5.834;2023-07-22T08:44:07;31.77;;;15.50;;
76113;SDS011;64845;53.086;5.834;2023-07-22T08:46:35;34.38;;;16.15;;
76113;SDS011;64845;53.086;5.834;2023-07-22T08:49:03;34.95;;;16.65;;
76113;SDS011;64845;53.086;5.834;2023-07-22T08:51:30;25.80;;;14.68;;
76113;SDS011;64845;53.086;5.834;2023-07-22T08:53:57;34.47;;;15.23;;
76113;SDS011;64845;53.086;5.834;2023-07-22T08:56:24;27.17;;;13.93;;
76113;SDS011;64845;53.086;5.834;2023-07-22T08:58:50;23.92;;;12.82;;
76113;SDS011;64845;53.086;5.834;2023-07-22T09:01:17;20.75;;;11.15;;
76113;SDS011;64845;53.086;5.834;2023-07-22T09:03:42;18.65;;;11.00;;
76113;SDS011;64845;53.086;5.834;2023-07-22T09:06:08;21.90;;;11.35;;
76113;SDS011;64845;53.086;5.834;2023-07-22T09:08:35;21.15;;;10.82;;
76113;SDS011;64845;53.086;5.834;2023-07-22T09:11:01;19.33;;;10.80;;
76113;SDS011;64845;53.086;5.834;2023-07-22T09:13:27;21.50;;;11.02;;
76113;SDS011;64845;53.086;5.834;2023-07-22T09:15:53;15.60;;;9.50;;
76113;SDS011;64845;53.086;5.834;2023-07-22T09:18:21;18.40;;;9.75;;
76113;SDS011;64845;53.086;5.834;2023-07-22T09:20:47;18.25;;;9.75;;
76113;SDS011;64845;53.086;5.834;2023-07-22T09:23:13;14.73;;;8.73;;
76113;SDS011;64845;53.086;5.834;2023-07-22T09:25:39;14.88;;;8.93;;
76113;SDS011;64845;53.086;5.834;2023-07-22T09:28:05;12.77;;;7.13;;
76113;SDS011;64845;53.086;5.834;2023-07-22T09:30:33;10.02;;;6.50;;
76113;SDS011;64845;53.086;5.834;2023-07-22T09:33:01;6.55;;;4.75;;
76113;SDS011;64845;53.086;5.834;2023-07-22T09:35:31;4.35;;;3.20;;
76113;SDS011;64845;53.086;5.834;2023-07-22T09:38:09;4.28;;;2.35;;
76113;SDS011;64845;53.086;5.834;2023-07-22T09:40:34;3.42;;;2.42;;
76113;SDS011;64845;53.086;5.834;2023-07-22T09:43:03;5.75;;;2.65;;
76113;SDS011;64845;53.086;5.834;2023-07-22T09:45:29;4.22;;;2.92;;
76113;SDS011;64845;53.086;5.834;2023-07-22T09:47:56;6.90;;;4.10;;
76113;SDS011;64845;53.086;5.834;2023-07-22T09:50:23;6.03;;;4.10;;
76113;SDS011;64845;53.086;5.834;2023-07-22T09:52:51;5.40;;;3.88;;
76113;SDS011;64845;53.086;5.834;2023-07-22T09:55:21;6.63;;;4.30;;
76113;SDS011;64845;53.086;5.834;2023-07-22T09:57:58;6.43;;;4.15;;
76113;SDS011;64845;53.086;5.834;2023-07-22T10:00:28;6.30;;;3.80;;
76113;SDS011;64845;53.086;5.834;2023-07-22T10:03:04;7.57;;;4.30;;
76113;SDS011;64845;53.086;5.834;2023-07-22T10:05:35;6.32;;;4.47;;
76113;SDS011;64845;53.086;5.834;2023-07-22T10:08:04;8.75;;;4.25;;
76113;SDS011;64845;53.086;5.834;2023-07-22T10:10:32;5.53;;;3.83;;
76113;SDS011;64845;53.086;5.834;2023-07-22T10:13:00;5.90;;;4.32;;
76113;SDS011;64845;53.086;5.834;2023-07-22T10:15:28;4.88;;;3.60;;
76113;SDS011;64845;53.086;5.834;2023-07-22T10:17:55;6.38;;;3.67;;
76113;SDS011;64845;53.086;5.834;2023-07-22T10:20:21;6.60;;;3.70;;
76113;SDS011;64845;53.086;5.834;2023-07-22T10:22:49;5.22;;;3.55;;
76113;SDS011;64845;53.086;5.834;2023-07-22T10:25:15;5.50;;;3.75;;
76113;SDS011;64845;53.086;5.834;2023-07-22T10:27:43;4.95;;;3.80;;
76113;SDS011;64845;53.086;5.834;2023-07-22T10:30:09;8.27;;;3.88;;
76113;SDS011;64845;53.086;5.834;2023-07-22T10:32:36;5.80;;;4.45;;
76113;SDS011;64845;53.086;5.834;2023-07-22T10:35:04;7.38;;;3.90;;
76113;SDS011;64845;53.086;5.834;2023-07-22T10:37:30;9.18;;;4.47;;
76113;SDS011;64845;53.086;5.834;2023-07-22T10:40:00;6.93;;;4.47;;
76113;SDS011;64845;53.086;5.834;2023-07-22T10:42:52;6.63;;;4.57;;
76113;SDS011;64845;53.086;5.834;2023-07-22T10:45:25;8.10;;;4.97;;
76113;SDS011;64845;53.086;5.834;2023-07-22T10:50:40;6.80;;;4.55;;
76113;SDS011;64845;53.086;5.834;2023-07-22T11:04:07;10.70;;;5.10;;
76113;SDS011;64845;53.086;5.834;2023-07-22T11:11:53;12.05;;;4.47;;
76113;SDS011;64845;53.086;5.834;2023-07-22T11:14:21;7.45;;;3.58;;
76113;SDS011;64845;53.086;5.834;2023-07-22T11:16:47;6.63;;;3.67;;
76113;SDS011;64845;53.086;5.834;2023-07-22T11:19:17;6.97;;;4.18;;
76113;SDS011;64845;53.086;5.834;2023-07-22T11:21:44;6.93;;;4.55;;
76113;SDS011;64845;53.086;5.834;2023-07-22T11:24:12;9.30;;;5.45;;
76113;SDS011;64845;53.086;5.834;2023-07-22T11:26:39;8.43;;;4.95;;
76113;SDS011;64845;53.086;5.834;2023-07-22T11:29:06;8.98;;;6.00;;
76113;SDS011;64845;53.086;5.834;2023-07-22T11:31:40;9.45;;;6.30;;
76113;SDS011;64845;53.086;5.834;2023-07-22T11:34:14;10.27;;;5.50;;
76113;SDS011;64845;53.086;5.834;2023-07-22T11:36:41;9.25;;;5.95;;
76113;SDS011;64845;53.086;5.834;2023-07-22T11:39:08;9.52;;;6.32;;
76113;SDS011;64845;53.086;5.834;2023-07-22T11:41:35;10.10;;;6.38;;
76113;SDS011;64845;53.086;5.834;2023-07-22T11:44:01;12.38;;;6.57;;
76113;SDS011;64845;53.086;5.834;2023-07-22T11:46:33;7.78;;;5.88;;
76113;SDS011;64845;53.086;5.834;2023-07-22T11:49:11;12.88;;;6.70;;
76113;SDS011;64845;53.086;5.834;2023-07-22T11:51:37;8.00;;;6.22;;
76113;SDS011;64845;53.086;5.834;2023-07-22T11:54:06;9.57;;;6.28;;
76113;SDS011;64845;53.086;5.834;2023-07-22T11:56:32;15.23;;;6.63;;
76113;SDS011;64845;53.086;5.834;2023-07-22T11:58:58;9.90;;;6.47;;
76113;SDS011;64845;53.086;5.834;2023-07-22T12:01:23;8.55;;;5.97;;
76113;SDS011;64845;53.086;5.834;2023-07-22T12:03:49;11.70;;;5.97;;
76113;SDS011;64845;53.086;5.834;2023-07-22T12:06:21;10.70;;;6.30;;
76113;SDS011;64845;53.086;5.834;2023-07-22T12:08:51;9.38;;;6.97;;
76113;SDS011;64845;53.086;5.834;2023-07-22T12:11:17;12.52;;;7.03;;
76113;SDS011;64845;53.086;5.834;2023-07-22T12:13:43;11.55;;;6.63;;
76113;SDS011;64845;53.086;5.834;2023-07-22T12:16:20;10.60;;;6.65;;
76113;SDS011;64845;53.086;5.834;2023-07-22T12:18:47;12.82;;;6.97;;
76113;SDS011;64845;53.086;5.834;2023-07-22T12:21:13;12.27;;;6.93;;
76113;SDS011;64845;53.086;5.834;2023-07-22T12:23:39;11.98;;;7.00;;
76113;SDS011;64845;53.086;5.834;2023-07-22T12:26:05;14.02;;;7.70;;
76113;SDS011;64845;53.086;5.834;2023-07-22T12:28:31;12.20;;;7.15;;
76113;SDS011;64845;53.086;5.834;2023-07-22T12:30:56;13.32;;;7.53;;
76113;SDS011;64845;53.086;5.834;2023-07-22T12:33:23;12.52;;;6.75;;
76113;SDS011;64845;53.086;5.834;2023-07-22T12:35:49;9.27;;;5.88;;
76113;SDS011;64845;53.086;5.834;2023-07-22T12:38:15;13.77;;;6.20;;
76113;SDS011;64845;53.086;5.834;2023-07-22T12:40:40;13.15;;;5.88;;
76113;SDS011;64845;53.086;5.834;2023-07-22T12:43:05;17.40;;;5.93;;
76113;SDS011;64845;53.086;5.834;2023-07-22T12:45:31;9.27;;;5.60;;
76113;SDS011;64845;53.086;5.834;2023-07-22T12:47:56;13.65;;;5.75;;
76113;SDS011;64845;53.086;5.834;2023-07-22T12:50:21;15.40;;;6.10;;
76113;SDS011;64845;53.086;5.834;2023-07-22T12:52:47;9.80;;;5.28;;
76113;SDS011;64845;53.086;5.834;2023-07-22T12:55:13;8.07;;;5.15;;
76113;SDS011;64845;53.086;5.834;2023-07-22T12:57:38;8.02;;;3.72;;
76113;SDS011;64845;53.086;5.834;2023-07-22T13:00:04;7.65;;;3.47;;
76113;SDS011;64845;53.086;5.834;2023-07-22T13:04:59;6.97;;;2.90;;
76113;SDS011;64845;53.086;5.834;2023-07-22T13:07:25;6.03;;;2.40;;
76113;SDS011;64845;53.086;5.834;2023-07-22T13:09:53;3.78;;;2.00;;
76113;SDS011;64845;53.086;5.834;2023-07-22T13:12:22;6.50;;;2.17;;
76113;SDS011;64845;53.086;5.834;2023-07-22T13:14:48;5.45;;;2.42;;
76113;SDS011;64845;53.086;5.834;2023-07-22T13:17:13;4.20;;;2.10;;
76113;SDS011;64845;53.086;5.834;2023-07-22T13:19:38;6.93;;;2.63;;
76113;SDS011;64845;53.086;5.834;2023-07-22T13:22:04;5.82;;;2.70;;
76113;SDS011;64845;53.086;5.834;2023-07-22T13:24:29;15.65;;;3.25;;
76113;SDS011;64845;53.086;5.834;2023-07-22T13:26:55;9.07;;;3.47;;
76113;SDS011;64845;53.086;5.834;2023-07-22T13:29:20;9.27;;;3.55;;
76113;SDS011;64845;53.086;5.834;2023-07-22T13:31:46;8.73;;;3.28;;
76113;SDS011;64845;53.086;5.834;2023-07-22T13:34:11;9.55;;;3.30;;
76113;SDS011;64845;53.086;5.834;2023-07-22T13:36:36;14.70;;;3.40;;
76113;SDS011;64845;53.086;5.834;2023-07-22T13:39:02;9.32;;;3.58;;
76113;SDS011;64845;53.086;5.834;2023-07-22T13:41:27;7.75;;;3.72;;
76113;SDS011;64845;53.086;5.834;2023-07-22T13:43:53;8.82;;;3.13;;
76113;SDS011;64845;53.086;5.834;2023-07-22T13:46:19;7.20;;;3.30;;
76113;SDS011;64845;53.086;5.834;2023-07-22T13:48:44;8.90;;;3.40;;
76113;SDS011;64845;53.086;5.834;2023-07-22T13:51:10;8.20;;;3.70;;
76113;SDS011;64845;53.086;5.834;2023-07-22T13:53:35;8.75;;;3.60;;
76113;SDS011;64845;53.086;5.834;2023-07-22T13:56:00;10.13;;;3.80;;
76113;SDS011;64845;53.086;5.834;2023-07-22T13:58:26;7.13;;;3.63;;
76113;SDS011;64845;53.086;5.834;2023-07-22T14:00:52;7.30;;;3.65;;
76113;SDS011;64845;53.086;5.834;2023-07-22T14:03:17;6.72;;;3.50;;
76113;SDS011;64845;53.086;5.834;2023-07-22T14:05:42;7.72;;;3.42;;
76113;SDS011;64845;53.086;5.834;2023-07-22T14:08:08;9.73;;;3.08;;
76113;SDS011;64845;53.086;5.834;2023-07-22T14:10:33;6.10;;;2.95;;
76113;SDS011;64845;53.086;5.834;2023-07-22T14:12:58;5.95;;;2.80;;
76113;SDS011;64845;53.086;5.834;2023-07-22T14:15:24;6.10;;;3.40;;
76113;SDS011;64845;53.086;5.834;2023-07-22T14:17:49;6.72;;;3.00;;
76113;SDS011;64845;53.086;5.834;2023-07-22T14:20:15;8.45;;;2.70;;
76113;SDS011;64845;53.086;5.834;2023-07-22T14:22:41;6.85;;;3.33;;
76113;SDS011;64845;53.086;5.834;2023-07-22T14:25:07;9.65;;;3.17;;
76113;SDS011;64845;53.086;5.834;2023-07-22T14:27:33;10.70;;;3.00;;
76113;SDS011;64845;53.086;5.834;2023-07-22T14:29:59;7.07;;;2.92;;
76113;SDS011;64845;53.086;5.834;2023-07-22T14:32:25;5.15;;;2.63;;
76113;SDS011;64845;53.086;5.834;2023-07-22T14:34:51;6.30;;;2.67;;
76113;SDS011;64845;53.086;5.834;2023-07-22T14:37:16;6.40;;;2.72;;
76113;SDS011;64845;53.086;5.834;2023-07-22T14:39:42;7.78;;;2.97;;
76113;SDS011;64845;53.086;5.834;2023-07-22T14:42:07;7.78;;;2.45;;
76113;SDS011;64845;53.086;5.834;2023-07-22T14:44:33;7.05;;;3.03;;
76113;SDS011;64845;53.086;5.834;2023-07-22T14:46:58;7.32;;;2.53;;
76113;SDS011;64845;53.086;5.834;2023-07-22T14:49:24;10.00;;;3.30;;
76113;SDS011;64845;53.086;5.834;2023-07-22T14:51:49;7.40;;;2.80;;
76113;SDS011;64845;53.086;5.834;2023-07-22T14:54:14;7.45;;;2.70;;
76113;SDS011;64845;53.086;5.834;2023-07-22T14:56:40;9.50;;;3.03;;